• Join FlightAware (Why Join?)
  • Login
  • US Flag 
10:12AM EDT


 

Airport Tracker/Info


-or-


 

Live Flight TrackerFlight Track Log ✈ SWA1004 ✈ 12-Apr-2013 ✈ KMDW - KSAT

Flight Track Log - Related Links

Times and Time Zones

All times are in EDT time to prevent confusion due to time zone crossing. See the SWA1004 flight status page for this flight to view local times or setup timezone preferences in your user account.

Time Position Orientation Groundspeed Altitude Reporting Facility
EDT Latitude Longitude Course Direction KTS MPH feet Rate Location/Type
12:27PM 41.7667 -87.8167 201° Southwest 181 208 2,600  Level Chicago TRACON
12:29PM 41.6969 -87.8775 213° Southwest 216 249 7,000 3,180 Climbing Chicago Center
12:30PM 41.6386 -87.9383 218° Southwest 262 302 10,600 2,400 Climbing Chicago Center
12:31PM 41.5783 -87.9997 217° Southwest 273 314 12,000 1,680 Climbing Chicago Center
12:32PM 41.5175 -88.0614 217° Southwest 277 319 14,100 2,280 Climbing Chicago Center
12:33PM 41.2852 -88.2241 201° Southwest  Level FlightAware Approximate
12:33PM 41.4406 -88.1400 217° Southwest 314 361 16,800  Level Chicago Center
12:34PM 41.3628 -88.1997 210° Southwest 336 387 20,200 2,940 Climbing Chicago Center
12:35PM 41.2719 -88.2394 198° South 345 397 22,900 2,220 Climbing Chicago Center
12:36PM 41.1772 -88.2839 199° South 360 414 24,800 1,920 Climbing Chicago Center
12:37PM 41.0533 -88.3392 199° South 394 453 26,900 1,800 Climbing Chicago Center
12:38PM 40.9456 -88.3886 199° South 407 468 28,600 1,680 Climbing Chicago Center
12:39PM 40.8356 -88.4386 199° South 420 483 30,500 1,920 Climbing Chicago Center
12:40PM 40.7261 -88.4861 198° South 416 479 32,700 1,980 Climbing Chicago Center
12:41PM 40.6194 -88.5317 198° South 405 466 34,700 1,560 Climbing Chicago Center
12:42PM 40.5158 -88.5778 199° South 396 456 36,000 1,080 Climbing Chicago Center
12:43PM 40.4003 -88.6286 199° South 409 471 37,000 960 Climbing Chicago Center
12:44PM 40.2983 -88.6900 205° Southwest 405 466 38,000 480 Climbing Chicago Center
12:45PM 40.2175 -88.7942 225° Southwest 405 466 38,000  Level Chicago Center
12:46PM 40.1214 -88.9169 224° Southwest 399 459 38,000  Level Chicago Center
12:47PM 40.0547 -88.9997 224° Southwest 404 465 38,000  Level Kansas City Center
12:48PM 39.9736 -89.1031 224° Southwest 405 466 38,000  Level Kansas City Center
12:49PM 39.8922 -89.2067 224° Southwest 406 467 38,000  Level Kansas City Center
12:50PM 39.8108 -89.3069 223° Southwest 404 465 38,000  Level Kansas City Center
12:51PM 39.7308 -89.4106 225° Southwest 404 465 38,000  Level Kansas City Center
12:52PM 39.6389 -89.5231 223° Southwest 403 464 38,000  Level Kansas City Center
12:53PM 39.5592 -89.6231 224° Southwest 401 461 38,000  Level Kansas City Center
12:54PM 39.4811 -89.7219 224° Southwest 395 455 38,000  Level Kansas City Center
12:55PM 39.4019 -89.8194 224° Southwest 394 453 38,000  Level Kansas City Center
12:56PM 39.3078 -89.9361 224° Southwest 393 452 38,000  Level Kansas City Center
12:57PM 39.2303 -90.0328 224° Southwest 391 450 38,000  Level Kansas City Center
12:58PM 39.1519 -90.1275 223° Southwest 388 447 38,000  Level Kansas City Center
12:59PM 39.0739 -90.2236 224° Southwest 389 448 38,000  Level Kansas City Center
01:00PM 38.9964 -90.3186 224° Southwest 388 447 38,000  Level Kansas City Center
01:02PM 38.9072 -90.4261 223° Southwest 376 433 38,000  Level Kansas City Center
01:03PM 38.8308 -90.5206 224° Southwest 375 432 38,000  Level Kansas City Center
01:04PM 38.7511 -90.6103 221° Southwest 377 434 38,000  Level Kansas City Center
01:05PM 38.6725 -90.6997 222° Southwest 386 444 38,000  Level Kansas City Center
01:06PM 38.5953 -90.7892 222° Southwest 382 440 38,000  Level Kansas City Center
01:07PM 38.5025 -90.8958 222° Southwest 378 435 38,000  Level Kansas City Center
01:08PM 38.4247 -90.9839 222° Southwest 377 434 38,000  Level Kansas City Center
01:09PM 38.3456 -91.0728 221° Southwest 379 436 38,000  Level Kansas City Center
01:10PM 38.2672 -91.1625 222° Southwest 380 437 38,000  Level Kansas City Center
01:11PM 38.1886 -91.2517 222° Southwest 381 438 38,000  Level Kansas City Center
01:12PM 38.1006 -91.3517 222° Southwest 384 442 38,000  Level Kansas City Center
01:13PM 38.0186 -91.4422 221° Southwest 386 444 38,000  Level Kansas City Center
01:14PM 37.9397 -91.5328 222° Southwest 382 440 38,000  Level Kansas City Center
01:15PM 37.8594 -91.6222 221° Southwest 380 437 38,000  Level Kansas City Center
01:16PM 37.7625 -91.7311 222° Southwest 382 440 38,000  Level Kansas City Center
01:17PM 37.6836 -91.8203 222° Southwest 379 436 38,000  Level Kansas City Center
01:18PM 37.6022 -91.9106 221° Southwest 382 440 38,000  Level Kansas City Center
01:19PM 37.5225 -91.9989 221° Southwest 378 435 38,000  Level Kansas City Center
01:20PM 37.4408 -92.0892 221° Southwest 382 440 38,000  Level Kansas City Center
01:21PM 37.3586 -92.1811 222° Southwest 387 445 38,000  Level Kansas City Center
01:22PM 37.2761 -92.2725 221° Southwest 390 449 38,000  Level Kansas City Center
01:23PM 37.1933 -92.3631 221° Southwest 391 450 38,000  Level Kansas City Center
01:24PM 37.0953 -92.4703 221° Southwest 388 447 38,000  Level Kansas City Center
01:25PM 37.0139 -92.5589 221° Southwest 385 443 38,000  Level Kansas City Center
01:26PM 36.9331 -92.6458 221° Southwest 383 441 38,000  Level Kansas City Center
01:27PM 36.8636 -92.7244 222° Southwest 390 449 38,000  Level Memphis Center
01:28PM 36.7789 -92.7997 215° Southwest 396 456 38,000  Level Memphis Center
01:29PM 36.6897 -92.8772 215° Southwest 390 449 38,000  Level Memphis Center
01:30PM 36.6028 -92.9547 216° Southwest 390 449 38,000  Level Memphis Center
01:31PM 36.5178 -93.0267 214° Southwest 390 449 38,000  Level Memphis Center
01:32PM 36.4286 -93.1039 215° Southwest 390 449 38,000  Level Memphis Center
01:33PM 36.3394 -93.1833 216° Southwest 390 449 38,000  Level Memphis Center
01:34PM 36.2500 -93.2600 215° Southwest 390 449 38,000  Level Memphis Center
01:35PM 36.1650 -93.3342 215° Southwest 390 449 38,000  Level Memphis Center
01:36PM 36.0775 -93.4081 214° Southwest 390 449 38,000  Level Memphis Center
01:37PM 35.9903 -93.4842 215° Southwest 390 449 38,000  Level Memphis Center
01:38PM 35.9028 -93.5578 214° Southwest 390 449 38,000  Level Memphis Center
01:39PM 35.8175 -93.6339 216° Southwest 390 449 38,000  Level Memphis Center
01:40PM 35.7300 -93.7097 215° Southwest 390 449 38,000  Level Memphis Center
01:41PM 35.6403 -93.7828 214° Southwest 390 449 38,000  Level Memphis Center
01:42PM 35.5508 -93.8581 214° Southwest 390 449 38,000  Level Memphis Center
01:43PM 35.4653 -93.9308 215° Southwest 390 449 38,000  Level Memphis Center
01:44PM 35.3775 -94.0061 215° Southwest 390 449 38,000  Level Memphis Center
01:45PM 35.2897 -94.0786 214° Southwest 390 449 38,000  Level Memphis Center
01:47PM 35.1339 -94.2122 215° Southwest 399 459 38,000  Level Fort Worth Center
01:48PM 35.0522 -94.2814 215° Southwest 387 445 38,000  Level Fort Worth Center
01:49PM 34.9644 -94.3581 216° Southwest 382 440 38,000  Level Fort Worth Center
01:50PM 34.8764 -94.4269 213° Southwest 382 440 38,000  Level Fort Worth Center
01:51PM 34.7822 -94.5061 215° Southwest 387 445 38,000  Level Fort Worth Center
01:52PM 34.6944 -94.5800 215° Southwest 387 445 38,000  Level Fort Worth Center
01:53PM 34.6042 -94.6536 214° Southwest 392 451 38,000  Level Fort Worth Center
01:54PM 34.5161 -94.7294 215° Southwest 392 451 38,000  Level Fort Worth Center
01:55PM 34.4278 -94.8000 213° Southwest 392 451 38,000  Level Fort Worth Center
01:56PM 34.3375 -94.8758 215° Southwest 392 451 38,000  Level Fort Worth Center
01:57PM 34.2658 -94.9358 215° Southwest 392 451 38,000  Level Fort Worth Center
01:58PM 34.1631 -95.0164 213° Southwest 392 451 38,000  Level Fort Worth Center
01:59PM 34.0725 -95.0917 215° Southwest 392 451 38,000  Level Fort Worth Center
02:00PM 33.9842 -95.1642 214° Southwest 392 451 38,000  Level Fort Worth Center
02:01PM 33.8956 -95.2314 212° Southwest 392 451 38,000  Level Fort Worth Center
02:02PM 33.8072 -95.3061 215° Southwest 392 451 38,000  Level Fort Worth Center
02:03PM 33.7164 -95.3758 213° Southwest 392 451 38,000  Level Fort Worth Center
02:04PM 33.6281 -95.4503 215° Southwest 392 451 38,000  Level Fort Worth Center
02:05PM 33.5372 -95.5219 213° Southwest 392 451 38,000  Level Fort Worth Center
02:06PM 33.4422 -95.5936 212° Southwest 398 458 38,000  Level Fort Worth Center
02:07PM 33.3556 -95.6650 215° Southwest 393 452 38,000  Level Fort Worth Center
02:08PM 33.2669 -95.7364 214° Southwest 393 452 38,000  Level Fort Worth Center
02:09PM 33.1739 -95.8103 214° Southwest 398 458 38,000  Level Fort Worth Center
02:10PM 33.0933 -95.8736 213° Southwest 398 458 38,000  Level Fort Worth Center
02:11PM 33.0022 -95.9444 213° Southwest 398 458 38,000  Level Fort Worth Center
02:12PM 32.9133 -96.0153 214° Southwest 393 452 38,000  Level Fort Worth Center
02:13PM 32.8200 -96.0858 212° Southwest 398 458 38,000  Level Fort Worth Center
02:14PM 32.7292 -96.1589 214° Southwest 398 458 38,000  Level Fort Worth Center
02:15PM 32.6294 -96.2367 213° Southwest 392 451 38,000  Level Fort Worth Center
02:16PM 32.5406 -96.3069 214° Southwest 397 457 38,000  Level Fort Worth Center
02:17PM 32.4514 -96.3769 214° Southwest 397 457 38,000  Level Fort Worth Center
02:18PM 32.3578 -96.4469 212° Southwest 397 457 38,000  Level Fort Worth Center
02:19PM 32.2644 -96.5192 213° Southwest 397 457 38,000  Level Fort Worth Center
02:20PM 32.1625 -96.5717 204° Southwest 397 457 38,000  Level Fort Worth Center
02:21PM 32.0606 -96.6289 205° Southwest 402 463 38,000  Level Fort Worth Center
02:23PM 31.9122 -96.7114 205° Southwest 401 461 38,000  Level Houston Center
02:23PM 31.8628 -96.7383 205° Southwest 397 457 38,000  Level Fort Worth Center
02:24PM 31.7608 -96.7953 205° Southwest 403 464 38,000  Level Fort Worth Center
02:25PM 31.6608 -96.8494 205° Southwest 403 464 38,000  Level Fort Worth Center
02:26PM 31.5914 -96.8839 203° Southwest 395 455 38,000  Level Houston Center
02:27PM 31.4914 -96.9378 205° Southwest 393 452 38,000  Level Houston Center
02:28PM 31.3903 -96.9917 204° Southwest 394 453 38,000  Level Houston Center
02:29PM 31.2903 -97.0464 205° Southwest 393 452 38,000 -180 Level Houston Center
02:30PM 31.1894 -97.1006 205° Southwest 394 453 37,700 -720 Descending Houston Center
02:31PM 31.0692 -97.1644 204° Southwest 401 461 36,600 -960 Descending Houston Center
02:32PM 30.9761 -97.2144 205° Southwest 408 470 35,700 -900 Descending Houston Center
02:33PM 30.8744 -97.2689 205° Southwest 405 466 34,800 -1,020 Descending Houston Center
02:34PM 30.7453 -97.3350 204° Southwest 415 478 33,600 -1,620 Descending Houston Center
02:35PM 30.6414 -97.3908 205° Southwest 409 471 31,500 -2,220 Descending Houston Center
02:36PM 30.5400 -97.4444 204° Southwest 398 458 29,100 -2,280 Descending Houston Center
02:37PM 30.4433 -97.4972 205° Southwest 384 442 26,800 -2,220 Descending Houston Center
02:38PM 30.3514 -97.5475 205° Southwest 365 420 24,600 -2,100 Descending Houston Center
02:39PM 30.2681 -97.6072 212° Southwest 350 403 22,500 -2,040 Descending Houston Center
02:40PM 30.1856 -97.6631 210° Southwest 341 392 20,400 -1,980 Descending Houston Center
02:41PM 30.1450 -97.6925 212° Southwest 334 384 19,400 -2,160 Descending Houston Center
02:41PM 30.0936 -97.7278 211° Southwest 330 380 18,200 -1,800 Descending Houston Center
02:42PM 30.0467 -97.7608 211° Southwest 328 377 17,400 -1,800 Descending Houston Center
02:42PM 30.0142 -97.7817 209° Southwest 337 388 16,400 -2,700 Descending Houston Center
02:43PM 29.9639 -97.8172 211° Southwest 344 396 14,700 -2,520 Descending Houston Center
02:43PM 29.9250 -97.8433 210° Southwest 346 398 13,800 -1,800 Descending Houston Center
02:44PM 29.8867 -97.8897 226° Southwest 342 394 12,900 -720 Descending Houston Center
02:44PM 29.8708 -97.9269 244° Southwest 336 387 13,100 60 Climbing Houston Center
02:45PM 29.8453 -97.9842 243° Southwest 320 368 13,000  Descending Houston Center
02:45PM 29.8281 -98.0247 244° Southwest 320 368 13,100  Climbing Houston Center
02:46PM 29.8078 -98.0756 245° Southwest 319 367 13,000 -600 Descending Houston Center
02:46PM 29.7897 -98.1172 243° Southwest 320 368 12,500 -1,620 Descending Houston Center
02:47PM 29.7703 -98.1669 246° West 317 365 11,400 -2,040 Descending Houston Center
02:48PM 29.7486 -98.2131 242° Southwest 310 357 10,400 -1,500 Descending Houston Center
02:48PM 29.7322 -98.2533 245° Southwest 303 349 9,900 -1,020 Descending Houston Center
02:49PM 29.7133 -98.2964 243° Southwest 292 336 9,400 -1,200 Descending Houston Center
02:49PM 29.6922 -98.3450 243° Southwest 273 314 8,600 -1,560 Descending Houston Center
02:50PM 29.6825 -98.3822 253° West 273 314 7,800 -1,860 Descending Houston Center
02:50PM 29.6764 -98.4214 260° West 275 316 6,900 -1,560 Descending Houston Center
02:51PM 29.6672 -98.4672 257° West 297 342 6,200 -1,080 Descending Houston Center
02:51PM 29.6594 -98.5125 259° West 264 304 5,700 -600 Descending Houston Center
02:52PM 29.6522 -98.5497 257° West 236 272 5,600 -240 Descending Houston Center
02:52PM 29.6422 -98.5769 247° West 160 184 5,500 -1,080 Descending Houston Center
02:53PM 29.6236 -98.5711 165° South 160 184 4,500 -1,920 Descending Houston Center
02:53PM 29.6094 -98.5639 156° South 145 167 3,800 -1,800 Descending Houston Center
02:54PM 29.5850 -98.5392 139° Southeast 159 183 2,700 -1,680 Descending Houston Center
02:54PM 29.5747 -98.5272 135° Southeast 150 173 2,100 -1,260 Descending Houston Center
02:55PM 29.5586 -98.5044 129° Southeast 147 169 1,400 -1,140 Descending Houston Center
02:55PM 29.5486 -98.4944 139° Southeast 135 155 1,000 -600 Descending Houston Center
02:56PM 29.5344 -98.4733 128° Southeast 135 155 800 -300 Descending Houston Center
02:58PM 29.5333 -98.4667 16° North  Level FlightAware Approximate
03:05PM 29.5340 -98.4691 16° North  Level Estimated